Thursday, January 29, 2015
10:19 UTC
  |  Log In   |  Register Free
Airport Search:

Page Field Airport
(KFMY)

FAA data valid effective January 08, 2015 - March 05, 2015 (unless otherwise noted).

 
 
 
 
 
 
 
 
 
 
 
 
 
 

Current Aviation Weather for Page Field Airport (KFMY)

The most recent METAR observation for KFMY was updated at: 1009
METAR Summary (Translated METAR)
KFMY
290953Z AUTO 04008KT 10SM CLR 08/06 A3022 RMK AO2 SLP236 T00830061
KRSW
290953Z 01007KT 10SM CLR 08/06 A3023 RMK AO2 SLP234 T00830056
(6.5 nm SE from KFMY)
KPGD
290953Z AUTO 03008KT 10SM CLR 06/04 A3025 RMK AO2 SLP245 T00610044
(21.1 nm NW from KFMY)
TAF Summary (Translated TAF)
KFMY
290534Z 2906/3006 05006KT P6SM SKC FM292000 27006KT P6SM FEW040 SCT250 FM300100 VRB03KT P6SM FEW250
KRSW
(6.5 nm SE from KFMY)
290534Z 2906/3006 04005KT P6SM SKC FM291600 05008KT P6SM FEW040 SCT250 FM300100 VRB03KT P6SM FEW250
  Airport Weather Conditions for KFMY

 Current Weather at FMY
47° F
Fair
Northeast winds at 9.2 mph
FMY NOAA Radar

Pressure: 30.22 in
Humidity: 86%
Wind: Northeast at 9.2 MPH (8 KT)
Dew Point: 43.0°F
Visibility: 10.00 mi


Airport Weather Forecast for KFMY

Translated METAR and TAF for KFMY
Translated METAR for KFMY (1019 UTC 29 January 2015)
found at http://aviationweather.gov/adds/metars/
 
METAR text: KFMY 290953Z AUTO 04008KT 10SM CLR 08/06 A3022 RMK AO2 SLP236 T00830061
Conditions at: KFMY (FORT MYERS , FL, US) observed 0953 UTC 29 January 2015
Temperature: 8.3°C (47°F)
Dewpoint: 6.1°C (43°F) [RH = 86%]
Pressure (altimeter): 30.22 inches Hg (1023.5 mb)
[Sea-level pressure: 1023.6 mb]
Winds: from the NE (40 degrees) at 9 MPH (8 knots; 4.2 m/s)
Visibility: 10 or more miles (16+ km)
Ceiling: at least 12,000 feet AGL
Clouds: sky clear below 12,000 feet AGL
Weather: automated observation with no human augmentation;
there may or may not be significant weather present at this time
Translated TAF for KFMY
Forecast for: KFMY (FORT MYERS , FL, US)
TAF Text: KFMY 290534Z 2906/3006 05006KT P6SM SKC
Forecast period: 0600 to 2000 UTC 29 January 2015
Forecast type: FROM: standard forecast or significant change
Winds: from the NE (50 degrees) at 7 MPH (6 knots; 3.1 m/s)
Visibility: 6 or more miles (10+ km)
Clouds: clear skies
Weather: no significant weather forecast for this period
TAF Text: FM292000 27006KT P6SM FEW040 SCT250
Forecast period: 2000 UTC 29 January 2015 to 0100 UTC 30 January 2015
Forecast type: FROM: standard forecast or significant change
Winds: from the W (270 degrees) at 7 MPH (6 knots; 3.1 m/s)
Visibility: 6 or more miles (10+ km)
Clouds: few clouds at 4000 feet AGL
scattered clouds at 25000 feet AGL
Weather: no significant weather forecast for this period
TAF Text: FM300100 VRB03KT P6SM FEW250
Forecast period: 0100 to 0600 UTC 30 January 2015
Forecast type: FROM: standard forecast or significant change
Winds: variable direction winds at 3 MPH (3 knots; 1.6 m/s)
Visibility: 6 or more miles (10+ km)
Clouds: few clouds at 25000 feet AGL
Weather: no significant weather forecast for this period

Find All Airport Services Find A Hotel Find A Rental Car Find A Golf Course Find A Restaurant $100 Hamburger



FBO's on the Field
FBO Company Facility Photos Services Transportation Aviation Fuel Prices: Prices include tax
Catering Weather Repair Courtesy Rental Type 100LL JetA JetA+ MOGAS 8087
 
Base Operations at Page Field

Currently rated 4.8 by 2 people
FS:Avfuel
Last Updated: Jan-27
Login to update fuel prices
SS:
Contact Base Operations at Page FieldMore FBO Information
 
Add another FBO Facility Photos Catering Weather Repair Courtesy Rental Type 100LL JetA JetA+ MOGAS 8087
Services Transportation Aviation Fuel Prices: Prices include tax


model-print
model-print
model-print
model-print